createdAt,value
2022-09-20T00:01:32.706Z,98802.97
2022-09-20T00:04:02.244Z,98793.63
2022-09-20T00:06:31.394Z,98797.63
2022-09-20T00:08:59.728Z,98794.78
2022-09-20T00:11:30.003Z,98793.09
2022-09-20T00:13:58.884Z,98791.97
2022-09-20T00:16:32.180Z,98792.69
2022-09-20T00:19:01.234Z,98793.28
2022-09-20T00:21:30.625Z,98786.47
2022-09-20T00:23:58.417Z,98790.75
2022-09-20T00:26:27.186Z,98784.84
2022-09-20T00:28:55.310Z,98782.06
2022-09-20T00:31:22.699Z,98783.97
2022-09-20T00:34:08.819Z,98792.25
2022-09-20T00:36:36.535Z,98787.28
2022-09-20T00:39:04.209Z,98790.28
2022-09-20T00:41:32.765Z,98788.72
2022-09-20T00:44:01.180Z,98797.75
2022-09-20T00:46:41.239Z,98794.97
2022-09-20T00:49:24.287Z,98791.22
2022-09-20T00:51:56.102Z,98799.97
2022-09-20T00:54:24.614Z,98797.63
2022-09-20T00:56:52.401Z,98792.78
2022-09-20T00:59:27.392Z,98794.59
2022-09-20T01:02:15.261Z,98788.78
2022-09-20T01:04:43.462Z,98790.31
2022-09-20T01:07:15.235Z,98787.56
2022-09-20T01:09:42.646Z,98794.72
2022-09-20T01:12:13.648Z,98792.25
2022-09-20T01:14:42.514Z,98794.56
2022-09-20T01:17:10.156Z,98800.25
2022-09-20T01:20:08.583Z,98796.97
2022-09-20T01:23:03.327Z,98793.75
2022-09-20T01:25:47.558Z,98799.22
2022-09-20T01:28:15.248Z,98792.97
2022-09-20T01:31:04.049Z,98787.16
2022-09-20T01:33:38.139Z,98795.34
2022-09-20T01:36:06.472Z,98791.00
2022-09-20T01:38:44.324Z,98786.13
2022-09-20T01:41:57.579Z,98784.97
2022-09-20T01:44:46.672Z,98785.09
2022-09-20T01:47:47.141Z,98778.44
2022-09-20T01:50:29.369Z,98774.56
2022-09-20T01:52:59.664Z,98786.88
2022-09-20T01:55:45.690Z,98787.69
2022-09-20T01:58:34.660Z,98778.63
2022-09-20T02:01:08.101Z,98774.41
2022-09-20T02:04:14.457Z,98778.78
2022-09-20T02:07:08.979Z,98786.56
2022-09-20T02:09:57.005Z,98784.66
2022-09-20T02:12:59.660Z,98779.06
2022-09-20T02:15:59.156Z,98786.41
2022-09-20T02:18:53.560Z,98780.66
2022-09-20T02:21:49.068Z,98775.13
2022-09-20T02:24:28.088Z,98774.06
2022-09-20T02:27:17.901Z,98778.13
2022-09-20T02:30:04.433Z,98781.16
2022-09-20T02:33:02.215Z,98778.97
2022-09-20T02:35:38.667Z,98783.69
2022-09-20T02:38:42.470Z,98779.75
2022-09-20T02:42:07.265Z,98775.16
2022-09-20T02:44:40.502Z,98781.41
2022-09-20T02:47:34.084Z,98783.38
2022-09-20T02:50:16.624Z,98782.00
2022-09-20T02:53:19.606Z,98783.50
2022-09-20T02:55:59.679Z,98783.22
2022-09-20T02:58:47.389Z,98791.41
2022-09-20T03:01:17.512Z,98786.28
2022-09-20T03:04:19.236Z,98786.41
2022-09-20T03:07:01.554Z,98788.78
2022-09-20T03:09:37.730Z,98786.97
2022-09-20T03:12:26.495Z,98792.56
2022-09-20T03:15:09.251Z,98805.09
2022-09-20T03:17:43.543Z,98794.41
2022-09-20T03:20:52.848Z,98800.38
2022-09-20T03:23:47.187Z,98791.88
2022-09-20T03:26:20.931Z,98795.38
2022-09-20T03:29:04.100Z,98801.66
2022-09-20T03:31:52.726Z,98796.16
2022-09-20T03:34:35.136Z,98803.78
2022-09-20T03:37:15.677Z,98807.28
2022-09-20T03:40:01.525Z,98801.38
2022-09-20T03:42:32.165Z,98806.63
2022-09-20T03:45:21.183Z,98805.69
2022-09-20T03:47:58.717Z,98802.84
2022-09-20T03:50:42.578Z,98802.09
2022-09-20T03:53:22.143Z,98805.38
2022-09-20T03:56:04.316Z,98806.31
2022-09-20T03:58:41.239Z,98809.16
2022-09-20T04:01:45.218Z,98809.06
2022-09-20T04:04:33.146Z,98806.13
2022-09-20T04:07:25.569Z,98813.16
2022-09-20T04:10:03.886Z,98810.44
2022-09-20T04:12:41.696Z,98811.19
2022-09-20T04:15:32.626Z,98814.69
2022-09-20T04:18:10.193Z,98807.06
2022-09-20T04:20:38.607Z,98807.19
2022-09-20T04:23:35.042Z,98811.69
2022-09-20T04:26:04.046Z,98823.38
2022-09-20T04:28:47.356Z,98816.31
2022-09-20T04:31:37.508Z,98820.53
2022-09-20T04:34:12.184Z,98814.53
2022-09-20T04:36:58.165Z,98809.56
2022-09-20T04:39:47.841Z,98821.53
2022-09-20T04:42:28.702Z,98815.06
2022-09-20T04:45:28.811Z,98816.44
2022-09-20T04:48:13.296Z,98819.91
2022-09-20T04:51:04.691Z,98820.72
2022-09-20T04:54:11.162Z,98826.91
2022-09-20T04:56:57.871Z,98836.84
2022-09-20T04:59:28.796Z,98841.44
2022-09-20T05:02:03.643Z,98843.69
2022-09-20T05:05:03.312Z,98846.88
2022-09-20T05:07:58.646Z,98851.97
2022-09-20T05:10:44.958Z,98857.06
2022-09-20T05:13:49.080Z,98854.78
2022-09-20T05:16:26.223Z,98855.72
2022-09-20T05:19:07.425Z,98858.16
2022-09-20T05:21:43.697Z,98862.59
2022-09-20T05:24:40.166Z,98863.50
2022-09-20T05:27:41.572Z,98864.00
2022-09-20T05:30:35.479Z,98865.53
2022-09-20T05:33:48.195Z,98858.78
2022-09-20T05:36:29.191Z,98860.00
2022-09-20T05:39:10.327Z,98859.25
2022-09-20T05:41:51.876Z,98868.72
2022-09-20T05:44:44.479Z,98869.97
2022-09-20T05:47:35.013Z,98867.59
2022-09-20T05:50:26.904Z,98870.94
2022-09-20T05:53:12.869Z,98875.16
2022-09-20T05:56:02.906Z,98875.78
2022-09-20T05:58:51.297Z,98884.91
2022-09-20T06:01:36.402Z,98877.94
2022-09-20T06:04:21.341Z,98882.06
2022-09-20T06:06:51.285Z,98884.31
2022-09-20T06:09:46.858Z,98879.66
2022-09-20T06:12:38.741Z,98880.78
2022-09-20T06:15:24.939Z,98881.69
2022-09-20T06:18:10.705Z,98883.28
2022-09-20T06:20:56.264Z,98883.81
2022-09-20T06:23:23.696Z,98882.97
2022-09-20T06:25:56.162Z,98890.69
2022-09-20T06:28:35.910Z,98890.69
2022-09-20T06:31:10.336Z,98879.94
2022-09-20T06:33:53.855Z,98887.09
2022-09-20T06:36:45.182Z,98891.31
2022-09-20T06:40:03.443Z,98891.28
2022-09-20T06:42:30.867Z,98900.44
2022-09-20T06:44:58.411Z,98901.75
2022-09-20T06:47:26.908Z,98914.66
2022-09-20T06:49:54.328Z,98927.34
2022-09-20T06:52:22.900Z,98934.41
2022-09-20T06:54:54.220Z,98928.72
2022-09-20T06:57:35.510Z,98933.34
2022-09-20T07:00:03.325Z,98939.22
2022-09-20T07:02:30.667Z,98926.03
2022-09-20T07:04:59.131Z,98934.44
2022-09-20T07:07:26.621Z,98935.34
2022-09-20T07:09:53.951Z,98930.69
2022-09-20T07:12:21.294Z,98939.31
2022-09-20T07:14:50.538Z,98938.44
2022-09-20T07:17:17.853Z,98937.97
2022-09-20T07:19:45.215Z,98944.84
2022-09-20T07:22:12.806Z,98949.16
2022-09-20T07:24:41.285Z,98958.44
2022-09-20T07:27:11.223Z,98959.00
2022-09-20T07:29:40.863Z,98957.03
2022-09-20T07:32:08.454Z,98962.97
2022-09-20T07:34:35.715Z,98960.97
2022-09-20T07:37:03.250Z,98957.59
2022-09-20T07:39:30.533Z,98961.47
2022-09-20T07:41:57.866Z,98960.25
2022-09-20T07:44:25.196Z,98971.28
2022-09-20T07:46:54.345Z,98967.63
2022-09-20T07:49:22.580Z,98970.63
2022-09-20T07:51:51.061Z,98969.34
2022-09-20T07:54:18.532Z,98975.84
2022-09-20T07:56:46.459Z,98982.19
2022-09-20T07:59:14.764Z,98974.72
2022-09-20T08:01:42.729Z,98972.50
2022-09-20T08:04:10.581Z,98965.38
2022-09-20T08:06:42.319Z,98963.22
2022-09-20T08:09:11.281Z,98964.41
2022-09-20T08:11:40.016Z,98969.22
2022-09-20T08:14:17.818Z,98974.19
2022-09-20T08:16:47.596Z,98982.34
2022-09-20T08:19:20.842Z,98985.53
2022-09-20T08:21:49.688Z,98982.06
2022-09-20T08:24:17.378Z,98977.16
2022-09-20T08:26:44.785Z,98977.63
2022-09-20T08:29:13.313Z,98977.34
2022-09-20T08:31:42.554Z,98978.56
2022-09-20T08:34:12.221Z,98976.44
2022-09-20T08:36:42.184Z,98976.50
2022-09-20T08:42:28.624Z,98974.09
2022-09-20T08:45:06.101Z,98966.72
2022-09-20T08:47:36.157Z,98961.41
2022-09-20T08:50:09.797Z,98967.91
2022-09-20T08:52:40.087Z,98959.97
2022-09-20T08:55:37.519Z,98960.69
2022-09-20T08:58:08.754Z,98949.44
2022-09-20T09:00:37.738Z,98944.28
2022-09-20T09:03:07.460Z,98952.50
2022-09-20T09:05:46.481Z,98957.25
2022-09-20T09:08:21.288Z,98946.53
2022-09-20T09:10:56.347Z,98946.56
2022-09-20T09:13:34.704Z,98961.31
2022-09-20T09:16:09.748Z,98955.38
2022-09-20T09:18:43.279Z,98950.13
2022-09-20T09:21:21.676Z,98941.91
2022-09-20T09:24:14.071Z,98945.03
2022-09-20T09:26:43.300Z,98943.91
2022-09-20T09:29:16.841Z,98941.16
2022-09-20T09:31:45.872Z,98950.16
2022-09-20T09:34:30.621Z,98958.41
2022-09-20T09:36:59.196Z,98946.97
2022-09-20T09:39:33.263Z,98956.06
2022-09-20T09:42:01.098Z,98959.84
2022-09-20T09:44:33.750Z,98955.84
2022-09-20T09:47:01.387Z,98953.56
2022-09-20T09:49:36.499Z,98947.56
2022-09-20T09:52:24.692Z,98943.72
2022-09-20T09:55:02.405Z,98933.09
2022-09-20T09:58:04.727Z,98932.28
2022-09-20T10:00:33.532Z,98920.06
2022-09-20T10:03:06.900Z,98920.28
2022-09-20T10:05:38.789Z,98904.75
2022-09-20T10:08:15.219Z,98915.31
2022-09-20T10:11:30.041Z,98920.91
2022-09-20T10:14:26.991Z,98924.94
2022-09-20T10:17:34.180Z,98929.53
2022-09-20T10:20:20.579Z,98935.41
2022-09-20T10:23:51.602Z,98932.38
2022-09-20T10:26:41.201Z,98937.81
2022-09-20T10:29:46.204Z,98929.75
2022-09-20T10:32:35.388Z,98929.25
2022-09-20T10:35:25.735Z,98926.97
2022-09-20T10:38:19.811Z,98918.09
2022-09-20T10:41:18.188Z,98918.41
2022-09-20T10:44:05.595Z,98906.41
2022-09-20T10:46:45.232Z,98899.56
2022-09-20T10:49:33.807Z,98912.31
2022-09-20T10:52:15.253Z,98915.81
2022-09-20T10:55:06.460Z,98922.09
2022-09-20T10:58:15.999Z,98931.00
2022-09-20T11:00:52.731Z,98931.28
2022-09-20T11:03:34.940Z,98926.09
2022-09-20T11:06:21.251Z,98940.44
2022-09-20T11:08:51.718Z,98922.63
2022-09-20T11:11:39.215Z,98916.25
2022-09-20T11:14:23.047Z,98929.00
2022-09-20T11:17:09.361Z,98929.81
2022-09-20T11:20:08.051Z,98925.91
2022-09-20T11:22:40.973Z,98930.47
2022-09-20T11:25:29.446Z,98923.28
2022-09-20T11:28:27.177Z,98925.41
2022-09-20T11:31:19.104Z,98914.66
2022-09-20T11:33:54.077Z,98919.34
2022-09-20T11:36:33.292Z,98929.91
2022-09-20T11:39:19.297Z,98917.03
2022-09-20T11:41:47.503Z,98921.31
2022-09-20T11:44:18.377Z,98917.94
2022-09-20T11:47:02.728Z,98919.84
2022-09-20T11:49:51.882Z,98921.63
2022-09-20T11:52:45.055Z,98914.19
2022-09-20T11:55:21.403Z,98918.94
2022-09-20T11:58:01.337Z,98912.22
2022-09-20T12:00:35.460Z,98923.59
2022-09-20T12:03:06.208Z,98917.28
2022-09-20T12:05:43.739Z,98924.19
2022-09-20T12:08:25.140Z,98912.06
2022-09-20T12:11:04.500Z,98915.56
2022-09-20T12:13:35.309Z,98909.34
2022-09-20T12:16:04.219Z,98912.88
2022-09-20T12:18:39.171Z,98912.47
2022-09-20T12:21:16.123Z,98908.00
2022-09-20T12:23:56.658Z,98907.53
2022-09-20T12:26:26.697Z,98902.69
2022-09-20T12:28:56.019Z,98903.44
2022-09-20T12:31:26.428Z,98892.75
2022-09-20T12:34:10.032Z,98890.75
2022-09-20T12:36:38.940Z,98881.56
2022-09-20T12:39:12.109Z,98881.47
2022-09-20T12:41:50.596Z,98887.13
2022-09-20T12:44:36.741Z,98896.81
2022-09-20T12:47:12.887Z,98906.09
2022-09-20T12:50:01.893Z,98909.03
2022-09-20T12:52:47.716Z,98912.81
2022-09-20T12:55:30.117Z,98915.25
2022-09-20T12:58:22.896Z,98921.75
2022-09-20T13:00:59.337Z,98915.50
2022-09-20T13:03:43.056Z,98915.50
2022-09-20T13:06:17.700Z,98920.03
2022-09-20T13:09:07.395Z,98911.56
2022-09-20T13:11:55.877Z,98907.22
2022-09-20T13:14:31.921Z,98904.94
2022-09-20T13:17:25.222Z,98913.41
2022-09-20T13:19:53.250Z,98910.94
2022-09-20T13:22:28.269Z,98905.16
2022-09-20T13:25:01.193Z,98905.03
2022-09-20T13:28:00.787Z,98901.00
2022-09-20T13:30:32.705Z,98897.47
2022-09-20T13:33:23.040Z,98898.16
2022-09-20T13:35:57.084Z,98905.00
2022-09-20T13:38:27.728Z,98892.75
2022-09-20T13:41:09.108Z,98894.13
2022-09-20T13:43:45.369Z,98889.56
2022-09-20T13:46:28.744Z,98883.34
2022-09-20T13:49:17.524Z,98889.91
2022-09-20T13:51:44.898Z,98882.88
2022-09-20T13:54:30.396Z,98881.34
2022-09-20T13:57:01.273Z,98877.50
2022-09-20T13:59:35.141Z,98880.84
2022-09-20T14:02:02.686Z,98872.88
2022-09-20T14:04:31.483Z,98874.94
2022-09-20T14:07:00.666Z,98872.97
2022-09-20T14:09:34.258Z,98878.13
2022-09-20T14:12:03.112Z,98884.50
2022-09-20T14:14:31.015Z,98892.81
2022-09-20T14:17:02.615Z,98889.47
2022-09-20T14:19:34.423Z,98891.44
2022-09-20T14:22:06.711Z,98896.88
2022-09-20T14:24:37.073Z,98902.47
2022-09-20T14:27:21.790Z,98904.31
2022-09-20T14:29:50.712Z,98899.00
2022-09-20T14:32:17.948Z,98891.16
2022-09-20T14:35:00.254Z,98890.03
2022-09-20T14:37:36.870Z,98896.78
2022-09-20T14:40:14.886Z,98892.66
2022-09-20T14:42:48.428Z,98890.84
2022-09-20T14:45:25.239Z,98894.53
2022-09-20T14:48:10.683Z,98890.16
2022-09-20T14:50:46.213Z,98892.97
2022-09-20T14:53:19.402Z,98896.88
2022-09-20T14:56:33.716Z,98890.41
2022-09-20T14:59:06.844Z,98893.38
2022-09-20T15:01:35.779Z,98884.38
2022-09-20T15:04:23.750Z,98887.31
2022-09-20T15:06:51.352Z,98891.59
2022-09-20T15:09:19.943Z,98885.25
2022-09-20T15:11:49.927Z,98892.13
2022-09-20T15:14:17.260Z,98889.94
2022-09-20T15:16:44.216Z,98896.00
2022-09-20T15:19:11.531Z,98890.91
2022-09-20T15:21:38.930Z,98894.66
2022-09-20T15:24:06.227Z,98893.09
2022-09-20T15:26:34.156Z,98891.69
2022-09-20T15:29:01.482Z,98887.28
2022-09-20T15:31:28.889Z,98885.63
2022-09-20T15:33:56.249Z,98889.06
2022-09-20T15:36:23.524Z,98890.91
2022-09-20T15:38:54.114Z,98889.53
2022-09-20T15:41:21.471Z,98893.66
2022-09-20T15:43:50.221Z,98899.94
2022-09-20T15:46:22.955Z,98898.97
2022-09-20T15:48:50.261Z,98892.44
2022-09-20T15:51:17.659Z,98889.38
2022-09-20T15:53:56.873Z,98891.34
2022-09-20T15:56:30.480Z,98893.19
2022-09-20T15:59:04.204Z,98894.50
2022-09-20T16:01:36.772Z,98895.34
2022-09-20T16:04:11.216Z,98892.28
2022-09-20T16:06:39.933Z,98891.16
2022-09-20T16:09:07.609Z,98898.84
2022-09-20T16:11:35.082Z,98904.88
2022-09-20T16:14:03.000Z,98904.44
2022-09-20T16:16:36.101Z,98905.56
2022-09-20T16:19:22.127Z,98902.31
2022-09-20T16:21:57.708Z,98906.44
2022-09-20T16:24:33.948Z,98913.13
2022-09-20T16:27:02.936Z,98918.25
2022-09-20T16:29:31.090Z,98916.50
2022-09-20T16:31:59.611Z,98917.50
2022-09-20T16:34:31.249Z,98915.16
2022-09-20T16:37:15.750Z,98920.78
2022-09-20T16:39:44.246Z,98919.81
2022-09-20T16:42:13.205Z,98925.50
2022-09-20T16:44:42.677Z,98930.59
2022-09-20T16:47:21.859Z,98929.91
2022-09-20T16:49:50.214Z,98933.94
2022-09-20T16:52:17.633Z,98935.16
2022-09-20T16:54:45.000Z,98930.47
2022-09-20T16:57:15.211Z,98928.66
2022-09-20T16:59:42.879Z,98933.03
2022-09-20T17:02:12.184Z,98929.31
2022-09-20T17:04:39.737Z,98936.53
2022-09-20T17:07:07.836Z,98935.94
2022-09-20T17:09:35.113Z,98935.53
2022-09-20T17:12:04.310Z,98946.03
2022-09-20T17:14:31.595Z,98943.69
2022-09-20T17:16:58.831Z,98946.19
2022-09-20T17:19:26.598Z,98955.91
2022-09-20T17:21:53.729Z,98959.63
2022-09-20T17:24:22.588Z,98962.78
2022-09-20T17:26:50.777Z,98968.59
2022-09-20T17:29:19.435Z,98969.75
2022-09-20T17:31:54.550Z,98980.38
2022-09-20T17:34:23.772Z,98975.69
2022-09-20T17:36:51.152Z,98971.78
2022-09-20T17:39:18.832Z,98978.94
2022-09-20T17:41:48.161Z,98980.72
2022-09-20T17:44:15.898Z,98987.53
2022-09-20T17:46:44.943Z,98985.00
2022-09-20T17:49:18.140Z,98993.69
2022-09-20T17:51:53.299Z,98991.78
2022-09-20T17:54:21.895Z,99007.13
2022-09-20T17:56:51.027Z,99006.06
2022-09-20T17:59:19.266Z,99007.63
2022-09-20T18:01:48.459Z,99014.41
2022-09-20T18:04:15.988Z,99016.44
2022-09-20T18:06:48.096Z,99020.78
2022-09-20T18:09:17.877Z,99029.00
2022-09-20T18:11:49.878Z,99025.34
2022-09-20T18:14:35.390Z,99030.00
2022-09-20T18:17:02.889Z,99033.41
2022-09-20T18:19:34.391Z,99032.00
2022-09-20T18:22:02.818Z,99035.69
2022-09-20T18:24:31.048Z,99045.13
2022-09-20T18:27:00.425Z,99042.97
2022-09-20T18:29:28.673Z,99045.53
2022-09-20T18:31:56.803Z,99053.59
2022-09-20T18:34:26.700Z,99049.53
2022-09-20T18:36:56.343Z,99058.00
2022-09-20T18:39:41.992Z,99062.34
2022-09-20T18:42:10.229Z,99060.66
2022-09-20T18:44:37.948Z,99062.19
2022-09-20T18:47:05.662Z,99063.50
2022-09-20T18:49:34.365Z,99071.72
2022-09-20T18:52:02.417Z,99070.84
2022-09-20T18:54:33.277Z,99071.94
2022-09-20T18:57:00.993Z,99077.38
2022-09-20T18:59:29.038Z,99079.25
2022-09-20T19:02:08.643Z,99081.31
2022-09-20T19:04:44.440Z,99088.50
2022-09-20T19:07:16.943Z,99084.00
2022-09-20T19:09:56.193Z,99089.59
2022-09-20T19:12:34.480Z,99092.78
2022-09-20T19:15:41.435Z,99093.66
2022-09-20T19:18:24.039Z,99095.56
2022-09-20T19:21:11.815Z,99103.72
2022-09-20T19:23:50.086Z,99107.28
2022-09-20T19:26:29.087Z,99114.97
2022-09-20T19:29:02.095Z,99107.19
2022-09-20T19:31:32.150Z,99118.31
2022-09-20T19:34:01.720Z,99112.47
2022-09-20T19:36:44.846Z,99119.47
2022-09-20T19:39:33.248Z,99114.63
2022-09-20T19:42:12.915Z,99123.63
2022-09-20T19:44:55.562Z,99121.41
2022-09-20T19:47:34.670Z,99118.13
2022-09-20T19:50:16.084Z,99115.56
2022-09-20T19:52:44.512Z,99114.66
2022-09-20T19:55:15.320Z,99124.41
2022-09-20T19:57:47.342Z,99116.94
2022-09-20T20:00:17.085Z,99115.41
2022-09-20T20:02:45.121Z,99125.31
2022-09-20T20:05:14.455Z,99120.00
2022-09-20T20:07:50.782Z,99124.25
2022-09-20T20:10:30.496Z,99121.75
2022-09-20T20:13:30.480Z,99126.78
2022-09-20T20:16:04.102Z,99126.91
2022-09-20T20:18:34.662Z,99129.97
2022-09-20T20:21:02.027Z,99135.72
2022-09-20T20:23:35.521Z,99128.13
2022-09-20T20:26:15.635Z,99133.59
2022-09-20T20:28:42.948Z,99140.22
2022-09-20T20:31:12.206Z,99137.00
2022-09-20T20:33:39.930Z,99137.69
2022-09-20T20:36:11.761Z,99140.91
2022-09-20T20:38:46.347Z,99139.09
2022-09-20T20:41:16.291Z,99141.72
2022-09-20T20:43:45.628Z,99143.69
2022-09-20T20:46:15.614Z,99141.81
2022-09-20T20:48:43.314Z,99140.28
2022-09-20T20:51:12.563Z,99147.72
2022-09-20T20:53:44.819Z,99144.25
2022-09-20T20:56:14.704Z,99143.16
2022-09-20T20:58:43.956Z,99145.53
2022-09-20T21:01:15.335Z,99146.19
2022-09-20T21:03:46.380Z,99145.06
2022-09-20T21:06:14.867Z,99154.59
2022-09-20T21:08:48.839Z,99145.75
2022-09-20T21:11:19.814Z,99145.06
2022-09-20T21:13:48.558Z,99147.53
2022-09-20T21:16:18.652Z,99139.03
2022-09-20T21:18:47.724Z,99137.63
2022-09-20T21:21:26.413Z,99142.66
2022-09-20T21:23:56.888Z,99143.72
2022-09-20T21:26:25.587Z,99138.66
2022-09-20T21:28:54.554Z,99144.97
2022-09-20T21:31:24.047Z,99143.22
2022-09-20T21:33:51.867Z,99150.56
2022-09-20T21:36:21.751Z,99142.44
2022-09-20T21:38:49.242Z,99145.06
2022-09-20T21:41:22.345Z,99138.03
2022-09-20T21:43:53.221Z,99138.03
2022-09-20T21:46:22.541Z,99143.88
2022-09-20T21:48:50.543Z,99147.22
2022-09-20T21:51:19.968Z,99155.03
2022-09-20T21:53:48.244Z,99157.19
2022-09-20T21:56:17.536Z,99149.88
2022-09-20T21:58:45.961Z,99146.53
2022-09-20T22:01:19.130Z,99155.44
2022-09-20T22:03:51.831Z,99149.16
2022-09-20T22:06:27.037Z,99141.81
2022-09-20T22:09:01.099Z,99144.63
2022-09-20T22:11:31.125Z,99140.88
2022-09-20T22:13:59.159Z,99137.34
2022-09-20T22:16:27.451Z,99139.00
2022-09-20T22:18:55.810Z,99137.31
2022-09-20T22:21:25.577Z,99144.75
2022-09-20T22:24:00.151Z,99139.72
2022-09-20T22:26:30.387Z,99140.47
2022-09-20T22:28:58.177Z,99139.00
2022-09-20T22:31:27.581Z,99137.13
2022-09-20T22:33:57.215Z,99140.91
2022-09-20T22:36:28.030Z,99150.34
2022-09-20T22:38:56.019Z,99144.28
2022-09-20T22:41:23.713Z,99139.28
2022-09-20T22:43:51.353Z,99134.72
2022-09-20T22:46:24.046Z,99143.44
2022-09-20T22:48:51.490Z,99151.56
2022-09-20T22:51:20.940Z,99146.47
2022-09-20T22:53:48.930Z,99142.56
2022-09-20T22:56:19.215Z,99149.72
2022-09-20T22:58:57.456Z,99156.56
2022-09-20T23:01:30.390Z,99146.53
2022-09-20T23:04:00.858Z,99154.25
2022-09-20T23:06:36.140Z,99147.25
2022-09-20T23:09:05.008Z,99151.59
2022-09-20T23:11:32.400Z,99148.41
2022-09-20T23:14:01.738Z,99151.16
2022-09-20T23:16:31.591Z,99143.13
2022-09-20T23:18:59.984Z,99150.44
2022-09-20T23:21:27.789Z,99155.53
2022-09-20T23:23:57.005Z,99147.06
2022-09-20T23:26:25.413Z,99145.06
2022-09-20T23:29:00.598Z,99146.22
2022-09-20T23:31:29.140Z,99150.25
2022-09-20T23:34:01.069Z,99149.88
2022-09-20T23:36:30.164Z,99141.72
2022-09-20T23:38:57.480Z,99149.59
2022-09-20T23:41:26.757Z,99155.75
2022-09-20T23:43:54.628Z,99159.41
2022-09-20T23:46:23.176Z,99165.09
2022-09-20T23:48:51.158Z,99160.66
2022-09-20T23:51:22.408Z,99161.31
2022-09-20T23:53:50.402Z,99160.41
2022-09-20T23:56:18.391Z,99157.41
2022-09-20T23:58:46.826Z,99160.91
